Time;durP1;ratioP1;P1;durP2;ratioP2;P2;SDS_P1;SDS_P2;PMS_P1;PMS_P2;Temp;Humidity;BMP_temperature;BMP_pressure;BME280_temperature;BME280_humidity;BME280_pressure;Samples;Min_cycle;Max_cycle;Signal;HPM_P1;HPM_P2
2023/02/21 02:16:05;;;;;;;6.03;3.10;;;6.80;74.50;;;;;;5056517;28;20421;-77
2023/02/21 02:18:51;;;;;;;6.43;2.60;;;6.70;74.80;;;;;;5046688;28;20461;-78
2023/02/21 02:21:38;;;;;;;7.93;2.63;;;6.70;74.80;;;;;;5029582;28;20434;-77
2023/02/21 02:24:09;;;;;;;10.07;3.80;;;6.70;74.90;;;;;;5036763;28;20483;-77
2023/02/21 02:27:12;;;;;;;4.07;2.40;;;6.70;75.10;;;;;;5043905;28;20418;-77
2023/02/21 02:29:50;;;;;;;3.40;2.03;;;6.70;74.90;;;;;;5034011;28;20420;-78
2023/02/21 02:32:21;;;;;;;6.10;2.17;;;6.70;75.20;;;;;;5035704;28;20518;-77
2023/02/21 02:35:00;;;;;;;7.50;4.80;;;6.70;75.50;;;;;;5039199;28;20442;-78
2023/02/21 02:37:38;;;;;;;7.83;3.33;;;6.70;75.40;;;;;;5024602;28;20503;-76
2023/02/21 02:40:19;;;;;;;9.23;4.40;;;6.70;75.40;;;;;;5023806;28;20431;-77
2023/02/21 02:43:15;;;;;;;12.63;5.13;;;6.60;75.40;;;;;;5030175;28;20476;-78
2023/02/21 02:45:46;;;;;;;9.17;4.23;;;6.60;75.70;;;;;;5041011;28;21012;-78
2023/02/21 02:48:49;;;;;;;5.50;2.97;;;6.50;75.50;;;;;;5041318;28;20470;-77
2023/02/21 02:51:16;;;;;;;5.60;3.10;;;6.50;75.50;;;;;;5035821;28;20432;-78
2023/02/21 02:53:41;;;;;;;5.37;2.73;;;6.50;75.20;;;;;;5036462;28;20423;-79
2023/02/21 02:56:10;;;;;;;5.47;2.70;;;6.50;75.10;;;;;;5024138;28;20456;-79
2023/02/21 02:58:43;;;;;;;4.40;2.40;;;6.50;75.10;;;;;;5036026;28;20706;-79
2023/02/21 03:01:25;;;;;;;5.63;2.50;;;6.50;75.40;;;;;;5037116;28;20942;-79
2023/02/21 03:04:06;;;;;;;4.63;2.93;;;6.60;75.20;;;;;;5022326;28;20559;-81
2023/02/21 03:06:46;;;;;;;4.03;2.60;;;6.60;75.50;;;;;;5029605;28;20412;-80
2023/02/21 03:09:23;;;;;;;6.30;2.63;;;6.60;74.80;;;;;;5042726;28;20416;-79
2023/02/21 03:12:27;;;;;;;5.00;2.70;;;6.70;74.60;;;;;;5041135;28;20415;-78
2023/02/21 03:15:01;;;;;;;5.30;2.60;;;6.60;75.10;;;;;;5037463;28;20461;-80
2023/02/21 03:17:30;;;;;;;5.27;2.60;;;6.60;75.40;;;;;;5051372;28;20472;-80
2023/02/21 03:19:58;;;;;;;4.43;2.50;;;6.60;75.70;;;;;;5028748;28;20423;-79
2023/02/21 03:22:29;;;;;;;7.00;3.10;;;6.60;75.50;;;;;;5045358;28;20434;-80
2023/02/21 03:24:57;;;;;;;7.33;2.93;;;6.50;75.50;;;;;;5025590;28;20534;-79
2023/02/21 03:27:25;;;;;;;9.87;4.33;;;6.50;75.70;;;;;;5031935;28;20474;-80
2023/02/21 03:29:52;;;;;;;8.40;3.33;;;6.50;75.70;;;;;;5017390;28;20499;-80
2023/02/21 03:34:52;;;;;;;9.93;2.80;;;6.50;75.70;;;;;;5032392;28;20498;-77
2023/02/21 03:37:35;;;;;;;5.27;3.30;;;6.50;75.80;;;;;;5025760;28;20443;-77
2023/02/21 03:40:02;;;;;;;7.23;3.33;;;6.40;75.80;;;;;;5023691;28;20419;-77
2023/02/21 03:42:27;;;;;;;7.37;3.60;;;6.40;75.80;;;;;;5038428;28;20415;-79
2023/02/21 03:44:53;;;;;;;6.03;3.03;;;6.30;75.90;;;;;;5033785;28;20479;-78
2023/02/21 03:47:19;;;;;;;4.23;2.70;;;6.30;75.90;;;;;;5030001;28;20625;-78
2023/02/21 03:49:44;;;;;;;4.90;2.80;;;6.30;75.90;;;;;;5047296;28;20610;-78
2023/02/21 03:52:14;;;;;;;3.20;2.33;;;6.20;75.90;;;;;;5037484;28;20652;-78
2023/02/21 03:54:40;;;;;;;8.27;3.07;;;6.20;76.10;;;;;;5033458;28;20228;-78
2023/02/21 03:57:06;;;;;;;11.40;4.40;;;6.20;76.10;;;;;;5033203;28;20518;-77
2023/02/21 03:59:32;;;;;;;6.40;3.50;;;6.10;76.10;;;;;;5016295;28;20416;-79
2023/02/21 04:01:58;;;;;;;5.33;2.73;;;6.10;76.10;;;;;;5034460;28;20496;-78
2023/02/21 04:04:23;;;;;;;9.20;3.70;;;6.10;75.90;;;;;;5029620;28;20213;-77
2023/02/21 04:06:49;;;;;;;5.77;2.70;;;6.00;75.80;;;;;;5030601;28;20451;-77
2023/02/21 04:09:15;;;;;;;6.50;3.23;;;6.00;75.80;;;;;;5014364;28;20174;-77
2023/02/21 04:11:44;;;;;;;5.00;3.03;;;5.90;75.90;;;;;;5031097;28;20666;-77
2023/02/21 04:14:09;;;;;;;6.87;3.30;;;5.90;75.90;;;;;;5029569;28;20181;-78
2023/02/21 04:16:35;;;;;;;8.60;3.47;;;5.80;76.10;;;;;;5026271;28;20424;-76
2023/02/21 04:19:01;;;;;;;3.60;2.60;;;5.70;76.10;;;;;;5014176;28;20947;-77
2023/02/21 04:21:26;;;;;;;6.87;3.10;;;5.70;76.20;;;;;;5033513;28;20226;-77
2023/02/21 04:23:52;;;;;;;8.40;3.03;;;5.70;76.40;;;;;;5035786;28;20197;-78
2023/02/21 04:26:18;;;;;;;4.70;2.70;;;5.70;76.40;;;;;;5018739;28;20205;-78
2023/02/21 04:28:43;;;;;;;8.23;3.13;;;5.60;76.40;;;;;;5029432;28;20208;-77
2023/02/21 04:31:09;;;;;;;6.33;3.60;;;5.60;76.50;;;;;;5031032;28;20181;-78
2023/02/21 04:33:34;;;;;;;8.13;4.20;;;5.50;76.50;;;;;;5033983;28;20181;-77
2023/02/21 04:36:00;;;;;;;7.47;2.90;;;5.50;76.70;;;;;;5028378;28;20346;-77
2023/02/21 04:38:25;;;;;;;7.50;3.17;;;5.60;76.70;;;;;;5034969;28;20205;-76
2023/02/21 04:40:51;;;;;;;4.70;2.80;;;5.60;76.50;;;;;;5028882;28;20204;-79
2023/02/21 04:43:17;;;;;;;9.00;2.87;;;5.50;76.20;;;;;;5049515;28;20209;-78
2023/02/21 04:45:42;;;;;;;5.03;2.93;;;5.50;76.40;;;;;;5037752;28;20208;-78
2023/02/21 04:48:08;;;;;;;6.23;3.33;;;5.40;76.50;;;;;;5031659;28;20193;-77
2023/02/21 04:50:33;;;;;;;8.33;3.17;;;5.40;76.50;;;;;;5038774;28;20188;-77
2023/02/21 04:52:59;;;;;;;7.83;2.87;;;5.30;76.70;;;;;;5032868;28;20185;-78
2023/02/21 04:55:24;;;;;;;9.17;4.20;;;5.40;76.70;;;;;;5024707;28;20202;-78
2023/02/21 04:57:50;;;;;;;7.90;5.03;;;5.30;76.70;;;;;;5034846;28;20197;-77
2023/02/21 05:00:16;;;;;;;11.33;4.97;;;5.30;77.00;;;;;;5017375;28;20196;-78
2023/02/21 05:02:43;;;;;;;8.60;4.70;;;5.30;77.30;;;;;;5012342;28;20216;-78
2023/02/21 05:05:09;;;;;;;12.10;4.80;;;5.30;77.40;;;;;;5041677;28;20197;-77
2023/02/21 05:07:34;;;;;;;7.80;4.10;;;5.20;77.60;;;;;;5051658;28;20483;-78
2023/02/21 05:10:00;;;;;;;7.13;4.30;;;5.20;77.70;;;;;;5020674;28;20443;-77
2023/02/21 05:12:25;;;;;;;6.50;3.93;;;5.20;77.70;;;;;;5045451;28;20181;-78
2023/02/21 05:14:51;;;;;;;9.50;3.67;;;5.10;77.80;;;;;;5037573;28;20216;-78
2023/02/21 05:17:17;;;;;;;8.50;3.70;;;5.10;77.80;;;;;;5039979;28;20189;-78
2023/02/21 05:19:42;;;;;;;13.90;6.13;;;5.10;78.00;;;;;;5034810;28;20200;-77
2023/02/21 05:22:08;;;;;;;7.43;4.27;;;5.00;78.10;;;;;;5037468;28;20465;-78
2023/02/21 05:24:34;;;;;;;13.33;3.70;;;5.00;78.40;;;;;;5031553;28;20229;-77
2023/02/21 05:27:00;;;;;;;7.70;3.77;;;5.00;78.40;;;;;;5030368;28;20208;-77
2023/02/21 05:29:25;;;;;;;5.03;2.90;;;5.00;78.60;;;;;;5045332;28;20184;-77
2023/02/21 05:31:51;;;;;;;5.83;2.97;;;5.10;78.70;;;;;;5030969;28;20420;-77
2023/02/21 05:34:18;;;;;;;6.10;3.13;;;5.00;78.60;;;;;;5017917;28;20258;-76
2023/02/21 05:36:44;;;;;;;5.47;3.23;;;5.00;78.40;;;;;;5016240;28;20577;-77
2023/02/21 05:39:10;;;;;;;3.70;2.73;;;5.00;78.60;;;;;;5045137;28;20447;-76
2023/02/21 05:41:36;;;;;;;5.07;3.17;;;5.00;78.60;;;;;;5045046;28;20542;-78
2023/02/21 05:44:02;;;;;;;5.60;2.63;;;5.00;78.70;;;;;;5040288;28;20455;-79
2023/02/21 05:46:33;;;;;;;6.40;3.13;;;5.00;78.70;;;;;;5034705;28;20458;-78
2023/02/21 05:49:00;;;;;;;8.93;3.07;;;5.10;78.60;;;;;;5042714;28;20424;-80
2023/02/21 05:51:27;;;;;;;7.50;3.43;;;5.00;78.60;;;;;;5038003;28;20458;-78
2023/02/21 05:53:53;;;;;;;6.30;4.03;;;5.00;78.70;;;;;;5045947;28;20427;-76
2023/02/21 05:56:20;;;;;;;6.63;3.23;;;4.90;78.90;;;;;;5024871;28;20470;-76
2023/02/21 05:58:46;;;;;;;8.47;3.60;;;5.00;79.20;;;;;;5024913;28;20427;-78
2023/02/21 06:01:12;;;;;;;11.07;4.00;;;5.00;79.30;;;;;;5045370;28;20434;-77
2023/02/21 06:03:38;;;;;;;5.80;3.43;;;5.10;79.20;;;;;;5047670;28;20491;-79
2023/02/21 06:06:04;;;;;;;8.13;3.70;;;5.00;78.90;;;;;;5023871;28;20463;-77
2023/02/21 06:08:29;;;;;;;7.87;3.70;;;5.00;79.00;;;;;;5026722;28;20180;-77
2023/02/21 06:10:55;;;;;;;9.13;3.60;;;4.90;79.50;;;;;;5033391;28;20445;-78
2023/02/21 06:13:21;;;;;;;7.00;3.50;;;4.90;79.60;;;;;;5040666;28;20605;-78
2023/02/21 06:15:47;;;;;;;10.03;3.50;;;5.00;79.60;;;;;;5033104;28;20198;-80
2023/02/21 06:18:13;;;;;;;14.67;5.10;;;4.90;79.60;;;;;;5055538;28;20556;-79
2023/02/21 06:20:39;;;;;;;7.43;3.90;;;4.90;79.90;;;;;;5048452;28;20185;-79
2023/02/21 06:23:05;;;;;;;13.60;4.00;;;4.90;79.90;;;;;;5034235;28;20466;-78
2023/02/21 06:25:30;;;;;;;6.13;3.77;;;4.90;79.70;;;;;;5012694;28;20308;-79
2023/02/21 06:27:56;;;;;;;7.40;3.50;;;4.90;79.70;;;;;;5043606;28;20183;-81
2023/02/21 06:30:21;;;;;;;11.97;4.10;;;4.90;79.90;;;;;;5027994;28;20569;-80
2023/02/21 06:32:47;;;;;;;12.57;4.10;;;4.90;80.00;;;;;;5022035;28;20180;-79
2023/02/21 06:35:13;;;;;;;8.43;3.07;;;4.90;80.20;;;;;;5038163;28;20212;-78
2023/02/21 06:37:38;;;;;;;7.93;3.83;;;5.00;80.20;;;;;;5046945;28;20192;-80
2023/02/21 06:40:04;;;;;;;7.00;3.27;;;5.10;79.90;;;;;;5047993;28;20189;-80
2023/02/21 06:42:30;;;;;;;12.50;3.70;;;5.10;79.50;;;;;;5029081;28;20271;-79
2023/02/21 06:44:55;;;;;;;6.70;3.50;;;5.10;79.30;;;;;;5027860;28;20224;-78
2023/02/21 06:47:21;;;;;;;7.57;4.10;;;5.10;79.30;;;;;;5044890;28;20189;-79
2023/02/21 06:49:47;;;;;;;7.77;3.67;;;5.10;79.20;;;;;;5041656;28;20202;-81
2023/02/21 06:52:12;;;;;;;14.13;3.80;;;5.10;79.30;;;;;;5045670;28;20654;-79
2023/02/21 06:54:38;;;;;;;16.40;4.93;;;5.10;79.20;;;;;;5024511;28;20204;-78
2023/02/21 06:57:04;;;;;;;13.93;4.50;;;5.10;79.50;;;;;;5046463;28;20211;-80
2023/02/21 06:59:30;;;;;;;10.60;4.63;;;5.20;79.20;;;;;;5022135;28;20203;-80
2023/02/21 07:01:56;;;;;;;13.90;7.07;;;5.20;78.90;;;;;;5042283;28;20506;-81
2023/02/21 07:04:22;;;;;;;15.80;6.57;;;5.30;78.90;;;;;;5027193;28;20498;-80
2023/02/21 07:06:49;;;;;;;20.37;8.00;;;5.20;79.20;;;;;;5028546;28;20976;-81
2023/02/21 07:09:15;;;;;;;23.77;9.03;;;5.30;79.30;;;;;;5045183;28;20420;-80
2023/02/21 07:11:40;;;;;;;22.60;9.33;;;5.30;79.30;;;;;;5050008;28;20465;-80
2023/02/21 07:14:06;;;;;;;25.90;7.73;;;5.20;79.30;;;;;;5045337;28;20217;-80
2023/02/21 07:16:32;;;;;;;18.60;8.77;;;5.20;79.50;;;;;;5029782;28;20185;-80
2023/02/21 07:18:58;;;;;;;13.20;6.87;;;5.20;79.50;;;;;;5019270;28;20436;-79
2023/02/21 07:21:25;;;;;;;13.80;7.57;;;5.30;79.30;;;;;;5052554;28;20434;-82
2023/02/21 07:23:51;;;;;;;17.50;7.17;;;5.20;79.20;;;;;;5056339;28;20220;-80
2023/02/21 07:26:16;;;;;;;16.10;7.43;;;5.20;79.30;;;;;;5046238;28;20467;-80
2023/02/21 07:28:42;;;;;;;12.93;7.07;;;5.20;79.60;;;;;;5034506;28;20725;-79
2023/02/21 07:31:09;;;;;;;15.93;6.80;;;5.20;79.50;;;;;;5051047;28;20192;-80
2023/02/21 07:33:35;;;;;;;19.57;7.40;;;5.20;79.30;;;;;;5026737;28;20641;-79
2023/02/21 07:36:01;;;;;;;15.40;6.37;;;5.30;79.20;;;;;;5044085;28;20458;-80
2023/02/21 07:38:29;;;;;;;17.83;7.10;;;5.40;78.70;;;;;;5046361;28;20208;-82
2023/02/21 07:40:56;;;;;;;9.30;5.10;;;5.40;78.40;;;;;;5040362;28;20235;-80
2023/02/21 07:43:23;;;;;;;10.27;6.00;;;5.40;78.60;;;;;;5050518;28;20470;-80
2023/02/21 07:45:48;;;;;;;14.90;6.53;;;5.50;78.40;;;;;;5037028;28;20447;-80
2023/02/21 07:48:14;;;;;;;32.37;8.10;;;5.60;78.40;;;;;;5035602;28;20416;-80
2023/02/21 07:50:41;;;;;;;17.60;7.60;;;5.70;78.30;;;;;;5047322;28;20187;-81
2023/02/21 07:53:07;;;;;;;17.00;6.93;;;5.70;78.30;;;;;;5051728;28;20281;-81
2023/02/21 07:55:32;;;;;;;13.63;6.60;;;5.80;78.00;;;;;;5033071;28;20490;-81
2023/02/21 07:57:58;;;;;;;13.43;6.90;;;5.80;77.70;;;;;;5027627;28;20427;-79
2023/02/21 08:00:24;;;;;;;12.63;6.50;;;5.80;77.70;;;;;;5052978;28;20653;-79
2023/02/21 08:02:51;;;;;;;19.03;6.10;;;5.80;77.80;;;;;;5058056;28;20428;-80
2023/02/21 08:05:18;;;;;;;14.80;6.57;;;5.90;77.70;;;;;;5064402;28;20463;-80
2023/02/21 08:07:44;;;;;;;13.43;6.20;;;5.90;77.70;;;;;;5045548;28;20423;-81
2023/02/21 08:10:10;;;;;;;13.67;7.03;;;6.00;77.80;;;;;;5052992;28;20422;-80
2023/02/21 08:12:36;;;;;;;14.90;6.17;;;6.10;77.70;;;;;;5050356;28;20222;-81
2023/02/21 08:15:03;;;;;;;14.23;5.80;;;6.10;77.70;;;;;;5037769;28;20447;-79
2023/02/21 08:17:29;;;;;;;10.87;6.80;;;6.20;77.40;;;;;;5043619;28;20180;-81
2023/02/21 08:19:54;;;;;;;12.33;6.30;;;6.20;77.10;;;;;;5034991;28;20420;-80
2023/02/21 08:22:20;;;;;;;9.63;6.13;;;6.20;77.00;;;;;;5024681;28;20230;-79
2023/02/21 08:24:48;;;;;;;19.70;7.00;;;6.20;77.10;;;;;;5036775;28;20217;-80
2023/02/21 08:27:14;;;;;;;14.27;6.63;;;6.30;76.80;;;;;;5041199;28;20181;-80
2023/02/21 08:29:40;;;;;;;18.93;7.70;;;6.40;76.70;;;;;;5042756;28;20502;-80
2023/02/21 08:32:05;;;;;;;21.97;7.00;;;6.50;76.50;;;;;;5052912;28;20185;-79
2023/02/21 08:34:31;;;;;;;17.03;7.67;;;6.70;76.10;;;;;;5046148;28;20226;-81
2023/02/21 08:36:56;;;;;;;16.60;7.87;;;6.70;75.90;;;;;;5033820;28;20205;-79
2023/02/21 08:39:22;;;;;;;26.93;8.60;;;6.80;75.80;;;;;;5048133;28;20270;-80
2023/02/21 08:41:49;;;;;;;20.90;8.63;;;6.80;75.80;;;;;;5050552;28;20189;-80
2023/02/21 08:44:16;;;;;;;20.00;8.90;;;6.90;75.50;;;;;;5054623;28;20200;-80
2023/02/21 08:46:42;;;;;;;20.70;8.20;;;6.90;75.50;;;;;;5029761;28;20448;-80
2023/02/21 08:49:09;;;;;;;14.53;8.20;;;6.90;75.40;;;;;;5024166;28;20435;-79
2023/02/21 08:51:35;;;;;;;15.63;7.43;;;6.90;75.10;;;;;;5053364;28;20452;-78
2023/02/21 08:54:02;;;;;;;16.83;8.20;;;6.90;74.90;;;;;;5030085;28;20438;-80
2023/02/21 08:56:29;;;;;;;18.30;7.73;;;7.00;74.80;;;;;;5015777;28;20458;-80
2023/02/21 08:58:55;;;;;;;14.17;8.60;;;7.10;74.50;;;;;;5039629;28;20435;-79
2023/02/21 09:01:23;;;;;;;18.40;8.77;;;7.10;74.30;;;;;;5028462;28;20439;-79
2023/02/21 09:03:49;;;;;;;19.80;7.70;;;7.20;73.90;;;;;;5029939;28;20232;-79
2023/02/21 09:06:15;;;;;;;19.80;8.37;;;7.40;73.60;;;;;;5018391;28;20967;-79
2023/02/21 09:08:41;;;;;;;16.47;7.73;;;7.40;73.30;;;;;;5050692;28;20948;-80
2023/02/21 09:11:07;;;;;;;19.60;8.00;;;7.60;72.90;;;;;;5029511;28;20423;-80
2023/02/21 09:13:33;;;;;;;18.37;7.47;;;7.60;72.90;;;;;;5047969;28;20208;-80
2023/02/21 09:16:00;;;;;;;12.97;6.93;;;7.70;72.40;;;;;;5045715;28;20478;-80
2023/02/21 09:18:26;;;;;;;20.03;7.27;;;7.90;72.30;;;;;;5028383;28;20466;-80
2023/02/21 09:20:55;;;;;;;22.00;7.57;;;8.00;71.70;;;;;;5021618;28;20431;-77
2023/02/21 09:23:23;;;;;;;29.23;7.40;;;8.20;71.30;;;;;;5041493;28;20457;-79
2023/02/21 09:25:49;;;;;;;15.33;7.23;;;8.30;71.10;;;;;;5039771;28;20463;-80
2023/02/21 09:28:15;;;;;;;14.47;6.90;;;8.40;70.20;;;;;;5040560;28;20457;-79
2023/02/21 09:30:41;;;;;;;14.03;7.50;;;8.50;70.40;;;;;;5020991;28;20432;-79
2023/02/21 09:33:08;;;;;;;12.97;7.13;;;8.60;70.40;;;;;;5021235;28;20435;-78
2023/02/21 09:35:34;;;;;;;14.80;6.40;;;8.70;70.40;;;;;;5036488;28;20511;-79
2023/02/21 09:38:00;;;;;;;15.07;7.40;;;8.90;70.20;;;;;;5039593;28;20443;-81
2023/02/21 09:40:38;;;;;;;16.00;7.63;;;9.00;70.10;;;;;;5015181;28;20197;-81
2023/02/21 09:43:10;;;;;;;10.27;6.67;;;9.20;69.40;;;;;;5018150;28;20447;-81
2023/02/21 09:45:37;;;;;;;12.33;6.60;;;9.40;68.80;;;;;;5034811;28;20464;-79
2023/02/21 09:48:11;;;;;;;14.57;6.30;;;9.60;68.30;;;;;;5024327;28;21003;-82
2023/02/21 09:50:46;;;;;;;12.83;6.17;;;9.80;67.70;;;;;;5045539;28;20455;-80
2023/02/21 09:53:21;;;;;;;12.17;6.60;;;9.90;67.70;;;;;;5052848;28;20432;-79
2023/02/21 09:55:50;;;;;;;13.37;6.50;;;9.90;67.70;;;;;;5054326;28;20446;-80
2023/02/21 09:58:18;;;;;;;14.97;7.07;;;10.00;68.20;;;;;;5059856;28;20446;-80
2023/02/21 10:00:44;;;;;;;21.63;7.70;;;10.10;67.90;;;;;;5051638;28;20448;-79
2023/02/21 10:03:18;;;;;;;12.23;6.67;;;10.30;67.30;;;;;;5036448;28;20471;-79
2023/02/21 10:05:54;;;;;;;14.70;7.60;;;10.50;66.70;;;;;;5059711;28;20256;-80
2023/02/21 10:08:29;;;;;;;11.23;6.47;;;10.60;66.00;;;;;;5051870;28;20414;-80
2023/02/21 10:11:06;;;;;;;16.63;7.27;;;10.70;66.00;;;;;;5038010;28;20502;-80
2023/02/21 10:13:44;;;;;;;11.30;6.60;;;10.80;66.10;;;;;;5040008;28;20439;-79
2023/02/21 10:16:37;;;;;;;19.20;7.13;;;10.90;65.60;;;;;;5051517;28;20444;-81
2023/02/21 10:19:02;;;;;;;9.13;6.40;;;11.10;65.10;;;;;;5051139;28;20561;-81
2023/02/21 10:21:41;;;;;;;13.10;6.17;;;11.10;65.60;;;;;;5051937;28;20429;-81
2023/02/21 10:24:19;;;;;;;12.77;5.97;;;11.30;65.10;;;;;;5038528;28;20237;-80
2023/02/21 10:26:52;;;;;;;9.87;4.87;;;11.40;64.50;;;;;;5026929;28;20435;-80
2023/02/21 10:29:24;;;;;;;15.90;6.87;;;11.60;64.10;;;;;;5042505;28;20444;-79
2023/02/21 10:31:56;;;;;;;15.07;6.23;;;11.60;63.90;;;;;;5045406;28;20420;-81
2023/02/21 10:34:28;;;;;;;10.30;5.77;;;11.80;63.70;;;;;;5039244;28;20451;-80
2023/02/21 10:36:56;;;;;;;11.80;6.20;;;11.90;63.20;;;;;;5017760;28;20442;-80
2023/02/21 10:39:33;;;;;;;10.50;5.20;;;12.00;62.90;;;;;;5030971;28;20449;-79
2023/02/21 10:42:00;;;;;;;8.73;5.73;;;12.00;62.60;;;;;;5038215;28;20415;-80
2023/02/21 10:44:30;;;;;;;9.27;5.23;;;12.10;62.50;;;;;;5037359;28;20476;-79
2023/02/21 10:47:18;;;;;;;8.93;4.70;;;12.20;61.70;;;;;;5029502;28;20765;-82
2023/02/21 10:49:58;;;;;;;7.90;4.50;;;12.40;60.60;;;;;;5039487;28;20447;-82
2023/02/21 10:52:24;;;;;;;8.27;4.73;;;12.70;59.90;;;;;;5043434;28;20400;-80
2023/02/21 10:55:16;;;;;;;12.60;3.80;;;13.10;59.20;;;;;;5031067;28;20518;-80
2023/02/21 10:57:44;;;;;;;13.00;4.30;;;13.60;57.70;;;;;;5049529;28;20256;-80
2023/02/21 11:00:23;;;;;;;7.07;3.47;;;13.90;56.50;;;;;;5040913;28;20429;-80
2023/02/21 11:02:56;;;;;;;18.67;4.80;;;14.10;56.20;;;;;;5044028;28;20432;-77
2023/02/21 11:05:23;;;;;;;8.87;4.47;;;14.30;55.20;;;;;;5030219;28;20496;-81
2023/02/21 11:08:07;;;;;;;10.37;4.20;;;14.40;55.20;;;;;;5025869;28;20435;-80
2023/02/21 11:10:40;;;;;;;9.70;4.27;;;14.70;54.60;;;;;;5049543;28;20455;-79
2023/02/21 11:13:12;;;;;;;7.67;4.80;;;14.80;54.40;;;;;;5046936;28;20424;-81
2023/02/21 11:15:38;;;;;;;7.50;4.90;;;14.90;54.20;;;;;;5037443;28;20459;-80
2023/02/21 11:18:05;;;;;;;9.80;6.00;;;14.80;54.50;;;;;;5028479;28;20432;-82
2023/02/21 11:20:31;;;;;;;12.33;5.13;;;14.80;54.60;;;;;;5033183;28;20568;-81
2023/02/21 11:22:57;;;;;;;7.90;4.20;;;14.90;54.40;;;;;;5046994;28;20438;-79
2023/02/21 11:25:40;;;;;;;10.00;5.27;;;14.90;54.50;;;;;;5025516;28;20551;-81
2023/02/21 11:28:18;;;;;;;8.63;5.03;;;15.10;54.50;;;;;;5039107;28;20180;-80
2023/02/21 11:30:48;;;;;;;10.53;5.40;;;15.20;54.10;;;;;;5035870;28;20416;-80
2023/02/21 11:33:19;;;;;;;9.83;5.00;;;15.40;53.80;;;;;;5035998;28;20408;-80
2023/02/21 11:35:53;;;;;;;7.73;4.80;;;15.40;53.30;;;;;;5023931;28;20526;-80
2023/02/21 11:38:34;;;;;;;11.87;5.73;;;15.40;53.20;;;;;;5046554;28;20917;-80
2023/02/21 11:41:02;;;;;;;8.20;4.93;;;15.50;53.00;;;;;;5014764;28;20432;-81
2023/02/21 11:43:30;;;;;;;9.00;5.17;;;15.70;52.60;;;;;;5038104;28;20869;-83
2023/02/21 11:46:27;;;;;;;6.60;4.53;;;15.90;51.80;;;;;;5035195;28;20459;-80
2023/02/21 11:49:11;;;;;;;7.20;4.40;;;16.10;51.70;;;;;;5030687;28;20428;-81
2023/02/21 11:51:52;;;;;;;7.03;4.33;;;16.30;51.00;;;;;;5033478;28;20422;-81
2023/02/21 11:54:22;;;;;;;7.27;4.17;;;16.50;50.20;;;;;;5021166;28;20460;-81
2023/02/21 11:57:20;;;;;;;7.47;4.40;;;16.60;49.90;;;;;;5022325;28;20438;-80
2023/02/21 11:59:59;;;;;;;8.47;3.97;;;16.60;49.80;;;;;;5047133;28;20474;-80
2023/02/21 12:02:31;;;;;;;5.30;3.63;;;16.70;49.30;;;;;;5034649;28;20458;-80
2023/02/21 12:05:14;;;;;;;4.33;3.50;;;16.80;49.10;;;;;;5037505;28;20570;-81
2023/02/21 12:08:16;;;;;;;6.00;3.13;;;16.90;48.60;;;;;;5029533;28;20518;-80
2023/02/21 12:10:50;;;;;;;4.43;3.17;;;16.80;48.60;;;;;;5042963;28;20607;-80
2023/02/21 12:13:34;;;;;;;5.27;3.47;;;16.70;48.70;;;;;;5045744;28;20428;-79
2023/02/21 12:16:21;;;;;;;5.80;3.00;;;16.70;48.90;;;;;;5027250;28;20440;-80
2023/02/21 12:19:05;;;;;;;5.20;3.33;;;16.70;48.60;;;;;;5025313;28;20427;-79
2023/02/21 12:21:56;;;;;;;13.07;4.00;;;16.70;48.50;;;;;;5042395;28;20421;-79
2023/02/21 12:24:31;;;;;;;5.67;3.27;;;16.70;48.50;;;;;;5012560;28;20474;-79
2023/02/21 12:27:22;;;;;;;5.20;3.07;;;16.70;48.30;;;;;;5039834;28;20409;-80
2023/02/21 12:29:58;;;;;;;4.60;3.00;;;16.70;48.50;;;;;;5010046;28;20423;-81
2023/02/21 12:32:42;;;;;;;5.80;3.10;;;16.80;48.50;;;;;;5039264;28;20424;-80
2023/02/21 12:35:26;;;;;;;6.53;2.93;;;16.70;48.30;;;;;;5038857;28;20462;-81
2023/02/21 12:37:55;;;;;;;7.40;3.00;;;16.70;48.60;;;;;;5038520;28;20509;-80
2023/02/21 12:40:43;;;;;;;11.40;3.40;;;16.80;48.50;;;;;;5021387;28;20440;-80
2023/02/21 12:43:39;;;;;;;7.27;3.03;;;16.80;48.20;;;;;;5040838;28;20483;-81
2023/02/21 12:46:35;;;;;;;6.43;3.47;;;16.70;48.60;;;;;;5050945;28;20535;-81
2023/02/21 12:49:28;;;;;;;5.23;2.87;;;17.00;48.70;;;;;;5038997;28;20461;-79
2023/02/21 12:52:14;;;;;;;10.03;2.77;;;17.40;47.70;;;;;;5032778;28;20409;-80
2023/02/21 12:54:55;;;;;;;4.93;2.53;;;17.70;46.10;;;;;;5022253;28;20461;-81
2023/02/21 12:57:41;;;;;;;3.80;2.43;;;17.80;46.10;;;;;;5037910;28;20537;-79
2023/02/21 13:00:24;;;;;;;6.13;2.20;;;17.70;46.20;;;;;;5016771;28;20513;-80
2023/02/21 13:03:16;;;;;;;3.17;2.20;;;18.00;46.10;;;;;;5041641;28;20440;-81
2023/02/21 13:05:53;;;;;;;5.40;2.23;;;18.40;44.60;;;;;;5023553;28;20517;-80
2023/02/21 13:08:22;;;;;;;3.60;1.90;;;18.80;43.20;;;;;;5017541;28;20427;-80
2023/02/21 13:10:56;;;;;;;4.57;2.40;;;18.80;42.80;;;;;;5015860;28;20811;-80
2023/02/21 13:13:27;;;;;;;15.53;4.87;;;18.90;43.20;;;;;;5035991;28;20951;-80
2023/02/21 13:15:53;;;;;;;6.40;2.50;;;19.20;43.40;;;;;;5019524;28;20513;-80
2023/02/21 13:19:00;;;;;;;3.63;2.27;;;19.50;42.00;;;;;;5035022;28;20442;-79
2023/02/21 13:21:41;;;;;;;6.13;2.67;;;20.00;41.80;;;;;;4959868;28;20428;-81
2023/02/21 13:24:51;;;;;;;6.10;2.70;;;20.50;40.30;;;;;;4970357;28;20465;-81
2023/02/21 13:27:37;;;;;;;7.70;2.70;;;20.60;39.10;;;;;;4899335;29;20454;-81
2023/02/21 13:30:31;;;;;;;4.27;2.63;;;20.70;39.10;;;;;;4884805;29;20530;-80
2023/02/21 13:32:59;;;;;;;7.20;3.13;;;20.90;38.70;;;;;;4885215;29;20501;-81
2023/02/21 13:35:35;;;;;;;4.30;2.70;;;20.80;38.40;;;;;;4887053;29;20468;-80
2023/02/21 13:38:09;;;;;;;5.90;2.60;;;20.10;39.60;;;;;;4913247;29;20439;-79
2023/02/21 13:40:40;;;;;;;5.40;3.47;;;19.40;41.10;;;;;;4901583;29;20457;-80
2023/02/21 13:43:15;;;;;;;3.90;2.93;;;19.10;41.90;;;;;;4927871;29;20417;-80
2023/02/21 13:45:40;;;;;;;5.87;2.60;;;19.20;42.20;;;;;;4929492;29;20470;-80
2023/02/21 13:48:06;;;;;;;6.47;2.53;;;19.50;42.00;;;;;;4913792;29;20431;-79
2023/02/21 13:50:36;;;;;;;4.90;2.33;;;19.60;41.40;;;;;;4906900;29;20221;-79
2023/02/21 13:53:15;;;;;;;3.40;2.17;;;19.30;41.20;;;;;;4889908;29;20206;-81
2023/02/21 13:56:06;;;;;;;6.20;2.17;;;19.20;41.60;;;;;;4938394;28;20563;-80
2023/02/21 13:58:47;;;;;;;4.63;2.63;;;19.20;41.80;;;;;;5017078;28;20424;-80
2023/02/21 14:01:23;;;;;;;6.33;2.33;;;19.40;41.50;;;;;;5039644;28;20421;-80
2023/02/21 14:03:52;;;;;;;4.00;2.20;;;19.60;41.40;;;;;;5040809;28;20897;-81
2023/02/21 14:06:23;;;;;;;4.77;2.40;;;19.70;40.60;;;;;;5031154;28;20460;-79
2023/02/21 14:09:00;;;;;;;5.60;2.60;;;19.60;40.60;;;;;;5020590;28;20490;-81
2023/02/21 14:11:32;;;;;;;6.00;2.63;;;19.70;40.80;;;;;;5038210;28;20426;-82
2023/02/21 14:14:18;;;;;;;6.90;2.80;;;19.90;39.90;;;;;;5037113;28;21051;-80
2023/02/21 14:16:57;;;;;;;3.03;2.30;;;20.10;40.40;;;;;;5023003;28;20429;-80
2023/02/21 14:19:29;;;;;;;5.90;2.23;;;20.10;39.90;;;;;;5036174;28;20431;-80
2023/02/21 14:22:15;;;;;;;6.13;2.40;;;20.00;39.90;;;;;;5029258;28;20427;-81
2023/02/21 14:24:47;;;;;;;4.70;2.10;;;19.90;40.20;;;;;;5028574;28;20531;-80
2023/02/21 14:27:12;;;;;;;7.83;2.67;;;19.90;40.30;;;;;;5034818;28;20430;-81
2023/02/21 14:29:39;;;;;;;4.50;2.03;;;20.00;40.00;;;;;;5044790;28;20411;-80
2023/02/21 14:32:07;;;;;;;5.03;2.10;;;19.90;40.30;;;;;;5044148;28;20163;-80
2023/02/21 14:34:53;;;;;;;3.97;2.17;;;19.60;40.70;;;;;;5042412;28;20465;-80
2023/02/21 14:37:44;;;;;;;4.63;2.23;;;19.40;41.20;;;;;;5034197;28;20455;-80
2023/02/21 14:40:31;;;;;;;5.30;2.20;;;19.20;41.60;;;;;;5042407;28;20914;-80
2023/02/21 14:43:25;;;;;;;4.27;1.90;;;18.90;42.20;;;;;;5036138;28;20790;-79
2023/02/21 14:45:57;;;;;;;8.50;2.63;;;18.90;42.20;;;;;;5028001;28;20479;-80
2023/02/21 14:48:47;;;;;;;5.00;2.10;;;18.80;42.40;;;;;;5023467;28;20433;-80
2023/02/21 14:52:01;;;;;;;4.20;2.10;;;18.60;42.80;;;;;;5011928;28;20496;-80
2023/02/21 14:54:36;;;;;;;3.80;2.20;;;18.50;43.40;;;;;;4953715;28;20502;-80
2023/02/21 14:57:27;;;;;;;3.10;2.00;;;18.40;43.20;;;;;;4956338;28;20431;-80
2023/02/21 15:00:11;;;;;;;5.30;2.40;;;18.50;43.50;;;;;;4956288;28;20495;-78
2023/02/21 15:03:27;;;;;;;4.37;2.40;;;18.60;43.10;;;;;;5073477;28;20605;-80
2023/02/21 15:06:19;;;;;;;7.30;2.73;;;18.40;43.50;;;;;;5029178;28;20463;-80
2023/02/21 15:08:48;;;;;;;7.60;2.60;;;18.40;43.80;;;;;;5032767;28;20530;-80
2023/02/21 15:11:36;;;;;;;5.17;2.60;;;18.30;43.90;;;;;;5038047;28;20435;-80
2023/02/21 15:14:13;;;;;;;7.07;2.60;;;18.30;43.70;;;;;;5022610;28;20427;-80
2023/02/21 15:16:43;;;;;;;4.43;2.53;;;18.30;44.10;;;;;;5017433;28;20907;-74
2023/02/21 15:19:20;;;;;;;6.30;2.90;;;18.40;44.50;;;;;;5004584;28;20427;-75
2023/02/21 15:21:45;;;;;;;5.80;2.50;;;18.50;43.70;;;;;;4997658;28;20479;-74
2023/02/21 15:24:14;;;;;;;6.33;2.47;;;18.60;43.70;;;;;;5020322;28;20451;-74
2023/02/21 15:26:39;;;;;;;5.67;2.77;;;18.60;43.20;;;;;;5021600;28;20270;-74
2023/02/21 15:29:13;;;;;;;7.93;2.90;;;18.60;43.70;;;;;;5004275;28;20432;-76
2023/02/21 15:31:48;;;;;;;3.37;1.97;;;18.70;43.50;;;;;;5024632;28;20292;-80